createdAt,value
2019-05-11T00:00:37.510Z,0.00
2019-05-11T00:01:37.433Z,0.00
2019-05-11T00:02:37.422Z,0.00
2019-05-11T00:03:37.410Z,0.00
2019-05-11T00:04:37.442Z,0.00
2019-05-11T00:05:37.395Z,0.00
2019-05-11T00:06:37.452Z,0.00
2019-05-11T00:07:37.368Z,0.00
2019-05-11T00:08:37.359Z,0.00
2019-05-11T00:09:37.376Z,0.00
2019-05-11T00:10:37.341Z,0.00
2019-05-11T00:11:37.331Z,0.00
2019-05-11T00:12:37.316Z,0.00
2019-05-11T00:13:37.307Z,0.00
2019-05-11T00:14:37.321Z,0.00
2019-05-11T00:15:37.285Z,0.00
2019-05-11T00:16:37.277Z,0.00
2019-05-11T00:17:37.271Z,0.00
2019-05-11T00:18:37.250Z,0.00
2019-05-11T00:19:37.280Z,0.00
2019-05-11T00:20:37.238Z,0.00
2019-05-11T00:21:37.218Z,0.00
2019-05-11T00:22:37.211Z,0.00
2019-05-11T00:23:37.201Z,0.00
2019-05-11T00:24:37.215Z,0.00
2019-05-11T00:25:37.180Z,0.00
2019-05-11T00:26:37.165Z,0.00
2019-05-11T00:27:37.156Z,0.00
2019-05-11T00:28:37.149Z,0.00
2019-05-11T00:29:37.164Z,0.00
2019-05-11T00:30:37.123Z,0.00
2019-05-11T00:31:37.111Z,0.00
2019-05-11T00:32:37.107Z,0.00
2019-05-11T00:33:37.092Z,0.00
2019-05-11T00:34:37.117Z,0.00
2019-05-11T00:35:37.081Z,0.00
2019-05-11T00:36:37.059Z,0.00
2019-05-11T00:37:37.049Z,0.00
2019-05-11T00:38:37.041Z,0.00
2019-05-11T00:39:37.063Z,0.00
2019-05-11T00:40:37.140Z,0.00
2019-05-11T00:41:37.030Z,0.00
2019-05-11T00:42:37.104Z,0.00
2019-05-11T00:43:36.986Z,0.00
2019-05-11T00:44:37.036Z,0.00
2019-05-11T00:45:36.975Z,0.00
2019-05-11T00:46:37.114Z,0.00
2019-05-11T00:47:36.952Z,0.00
2019-05-11T00:48:36.933Z,0.00
2019-05-11T00:49:36.954Z,0.00
2019-05-11T00:50:39.839Z,0.00
2019-05-11T00:51:36.901Z,0.00
2019-05-11T00:52:36.892Z,0.00
2019-05-11T00:53:36.879Z,0.00
2019-05-11T00:54:36.903Z,0.00
2019-05-11T00:55:36.864Z,0.00
2019-05-11T00:56:36.851Z,0.00
2019-05-11T00:57:36.839Z,0.00
2019-05-11T00:58:36.826Z,0.00
2019-05-11T00:59:36.859Z,0.00
2019-05-11T01:00:36.803Z,0.00
2019-05-11T01:01:36.796Z,0.00
2019-05-11T01:02:36.787Z,0.00
2019-05-11T01:03:36.772Z,0.00
2019-05-11T01:04:36.777Z,0.00
2019-05-11T01:05:36.783Z,0.00
2019-05-11T01:06:36.742Z,0.00
2019-05-11T01:07:36.735Z,0.00
2019-05-11T01:08:36.718Z,0.00
2019-05-11T01:09:36.715Z,0.00
2019-05-11T01:10:42.116Z,0.00
2019-05-11T01:11:37.689Z,0.00
2019-05-11T01:12:36.701Z,0.00
2019-05-11T01:13:36.669Z,0.00
2019-05-11T01:14:36.664Z,0.00
2019-05-11T01:15:36.675Z,0.00
2019-05-11T01:16:36.640Z,0.00
2019-05-11T01:17:36.623Z,0.00
2019-05-11T01:18:36.616Z,0.00
2019-05-11T01:19:36.603Z,0.00
2019-05-11T01:20:36.617Z,0.00
2019-05-11T01:21:36.583Z,0.00
2019-05-11T01:22:36.567Z,0.00
2019-05-11T01:23:36.563Z,0.00
2019-05-11T01:24:36.547Z,0.00
2019-05-11T01:25:36.570Z,0.00
2019-05-11T01:26:36.537Z,0.00
2019-05-11T01:27:36.522Z,0.00
2019-05-11T01:28:36.504Z,0.00
2019-05-11T01:29:36.501Z,0.00
2019-05-11T01:30:38.764Z,0.00
2019-05-11T01:31:36.475Z,0.00
2019-05-11T01:32:36.469Z,0.00
2019-05-11T01:33:36.469Z,0.00
2019-05-11T01:34:36.464Z,0.00
2019-05-11T01:35:36.517Z,0.00
2019-05-11T01:36:36.423Z,0.00
2019-05-11T01:37:36.408Z,0.00
2019-05-11T01:38:36.400Z,0.00
2019-05-11T01:39:36.409Z,0.00
2019-05-11T01:40:36.405Z,0.00
2019-05-11T01:41:36.370Z,0.00
2019-05-11T01:42:36.354Z,0.00
2019-05-11T01:43:36.357Z,0.00
2019-05-11T01:44:36.339Z,0.00
2019-05-11T01:45:36.360Z,0.00
2019-05-11T01:46:36.323Z,0.00
2019-05-11T01:47:36.328Z,0.00
2019-05-11T01:48:36.294Z,0.00
2019-05-11T01:49:36.286Z,0.00
2019-05-11T01:50:36.270Z,0.00
2019-05-11T01:51:36.352Z,0.00
2019-05-11T01:52:36.250Z,0.00
2019-05-11T01:53:36.247Z,0.00
2019-05-11T01:54:36.226Z,0.00
2019-05-11T01:55:36.239Z,0.00
2019-05-11T01:56:36.230Z,0.00
2019-05-11T01:57:36.199Z,0.00
2019-05-11T01:58:36.187Z,0.00
2019-05-11T01:59:36.189Z,0.00
2019-05-11T02:00:36.162Z,0.00
2019-05-11T02:01:36.181Z,0.00
2019-05-11T02:02:36.153Z,0.00
2019-05-11T02:03:36.200Z,0.00
2019-05-11T02:04:36.120Z,0.00
2019-05-11T02:05:36.125Z,0.00
2019-05-11T02:06:36.130Z,0.00
2019-05-11T02:07:36.099Z,0.00
2019-05-11T02:08:36.083Z,0.00
2019-05-11T02:09:36.067Z,0.00
2019-05-11T02:10:36.059Z,0.00
2019-05-11T02:11:36.075Z,0.00
2019-05-11T02:12:36.037Z,0.00
2019-05-11T02:13:36.025Z,0.00
2019-05-11T02:14:36.016Z,0.00
2019-05-11T02:15:36.004Z,0.00
2019-05-11T02:16:36.017Z,0.00
2019-05-11T02:17:35.983Z,0.00
2019-05-11T02:18:35.979Z,0.00
2019-05-11T02:19:36.035Z,0.00
2019-05-11T02:20:35.956Z,0.00
2019-05-11T02:21:35.978Z,0.00
2019-05-11T02:22:35.938Z,0.00
2019-05-11T02:23:35.915Z,0.00
2019-05-11T02:24:35.907Z,0.00
2019-05-11T02:25:35.899Z,0.00
2019-05-11T02:26:35.931Z,0.00
2019-05-11T02:27:35.875Z,0.00
2019-05-11T02:28:35.868Z,0.00
2019-05-11T02:29:35.856Z,0.00
2019-05-11T02:30:35.853Z,0.00
2019-05-11T02:31:35.842Z,0.00
2019-05-11T02:32:35.847Z,0.00
2019-05-11T02:33:35.812Z,0.00
2019-05-11T02:34:35.805Z,0.00
2019-05-11T02:35:35.791Z,0.00
2019-05-11T02:36:35.782Z,0.00
2019-05-11T02:37:35.803Z,0.00
2019-05-11T02:38:35.763Z,0.00
2019-05-11T02:39:35.752Z,0.00
2019-05-11T02:40:35.739Z,0.00
2019-05-11T02:41:37.448Z,0.00
2019-05-11T02:42:35.743Z,0.00
2019-05-11T02:43:35.708Z,0.00
2019-05-11T02:44:35.708Z,0.00
2019-05-11T02:45:35.684Z,0.00
2019-05-11T02:46:35.683Z,0.00
2019-05-11T02:47:35.687Z,0.00
2019-05-11T02:48:35.652Z,0.00
2019-05-11T02:49:35.640Z,0.00
2019-05-11T02:50:35.638Z,0.00
2019-05-11T02:51:35.619Z,0.00
2019-05-11T02:52:35.646Z,0.00
2019-05-11T02:53:35.599Z,0.00
2019-05-11T02:54:35.591Z,0.00
2019-05-11T02:55:35.577Z,0.00
2019-05-11T02:56:35.570Z,0.00
2019-05-11T02:57:35.559Z,0.00
2019-05-11T02:58:35.575Z,0.00
2019-05-11T02:59:35.539Z,0.00
2019-05-11T03:00:35.537Z,0.00
2019-05-11T03:01:35.519Z,0.00
2019-05-11T03:02:35.504Z,0.00
2019-05-11T03:03:35.515Z,0.00
2019-05-11T03:04:35.486Z,4.00
2019-05-11T03:05:35.474Z,4.00
2019-05-11T03:06:35.549Z,4.00
2019-05-11T03:07:35.459Z,4.00
2019-05-11T03:08:35.466Z,0.00
2019-05-11T03:09:35.432Z,0.00
2019-05-11T03:10:35.417Z,4.00
2019-05-11T03:11:53.662Z,4.00
2019-05-11T03:12:36.397Z,4.00
2019-05-11T03:13:35.416Z,8.00
2019-05-11T03:14:35.379Z,4.00
2019-05-11T03:15:35.395Z,8.00
2019-05-11T03:16:35.359Z,4.00
2019-05-11T03:17:35.350Z,8.00
2019-05-11T03:18:35.357Z,8.00
2019-05-11T03:19:35.322Z,12.00
2019-05-11T03:20:35.313Z,12.00
2019-05-11T03:21:35.298Z,12.00
2019-05-11T03:22:35.287Z,16.00
2019-05-11T03:23:35.326Z,20.00
2019-05-11T03:24:35.267Z,20.00
2019-05-11T03:25:35.257Z,24.00
2019-05-11T03:26:35.249Z,28.00
2019-05-11T03:27:35.240Z,32.00
2019-05-11T03:28:35.226Z,40.00
2019-05-11T03:29:35.242Z,40.00
2019-05-11T03:30:35.218Z,48.00
2019-05-11T03:31:35.196Z,52.00
2019-05-11T03:32:35.183Z,56.00
2019-05-11T03:33:35.171Z,64.00
2019-05-11T03:34:35.188Z,72.00
2019-05-11T03:35:35.153Z,80.00
2019-05-11T03:36:35.143Z,88.00
2019-05-11T03:37:35.143Z,96.00
2019-05-11T03:38:35.117Z,108.00
2019-05-11T03:39:35.140Z,116.00
2019-05-11T03:40:35.098Z,120.00
2019-05-11T03:41:35.105Z,128.00
2019-05-11T03:42:35.081Z,136.00
2019-05-11T03:43:35.072Z,144.00
2019-05-11T03:44:35.358Z,156.00
2019-05-11T03:45:35.045Z,168.00
2019-05-11T03:46:35.032Z,184.00
2019-05-11T03:47:35.020Z,196.00
2019-05-11T03:48:35.016Z,212.00
2019-05-11T03:49:35.007Z,224.00
2019-05-11T03:50:35.019Z,236.00
2019-05-11T03:51:35.004Z,240.00
2019-05-11T03:52:34.970Z,244.00
2019-05-11T03:53:34.967Z,252.00
2019-05-11T03:54:34.961Z,260.00
2019-05-11T03:55:34.987Z,268.00
2019-05-11T03:56:34.929Z,280.00
2019-05-11T03:57:34.915Z,288.00
2019-05-11T03:58:34.914Z,300.00
2019-05-11T03:59:34.902Z,308.00
2019-05-11T04:00:34.915Z,320.00
2019-05-11T04:01:34.875Z,328.00
2019-05-11T04:02:34.860Z,344.00
2019-05-11T04:03:34.856Z,360.00
2019-05-11T04:04:34.847Z,376.00
2019-05-11T04:05:34.864Z,404.00
2019-05-11T04:06:34.823Z,428.00
2019-05-11T04:07:34.832Z,456.00
2019-05-11T04:08:34.799Z,484.00
2019-05-11T04:09:34.789Z,516.00
2019-05-11T04:10:34.822Z,548.00
2019-05-11T04:11:34.778Z,572.00
2019-05-11T04:12:35.680Z,596.00
2019-05-11T04:13:34.748Z,616.00
2019-05-11T04:14:34.733Z,644.00
2019-05-11T04:15:34.751Z,676.00
2019-05-11T04:16:34.713Z,724.00
2019-05-11T04:17:34.704Z,784.00
2019-05-11T04:18:34.703Z,864.00
2019-05-11T04:19:34.683Z,952.00
2019-05-11T04:20:34.703Z,1048.00
2019-05-11T04:21:34.679Z,1148.00
2019-05-11T04:22:34.656Z,1252.00
2019-05-11T04:23:34.639Z,1340.00
2019-05-11T04:24:34.628Z,1416.00
2019-05-11T04:25:34.651Z,1492.00
2019-05-11T04:26:34.619Z,1568.00
2019-05-11T04:27:34.600Z,1652.00
2019-05-11T04:28:34.589Z,1760.00
2019-05-11T04:29:34.574Z,1900.00
2019-05-11T04:30:34.597Z,2044.00
2019-05-11T04:31:34.551Z,2172.00
2019-05-11T04:32:34.541Z,2272.00
2019-05-11T04:33:34.534Z,2332.00
2019-05-11T04:34:34.522Z,2352.00
2019-05-11T04:35:34.521Z,2344.00
2019-05-11T04:36:34.524Z,2340.00
2019-05-11T04:37:34.489Z,2380.00
2019-05-11T04:38:34.481Z,2504.00
2019-05-11T04:39:34.462Z,2712.00
2019-05-11T04:40:34.459Z,2984.00
2019-05-11T04:41:34.475Z,3296.00
2019-05-11T04:42:51.817Z,3592.00
2019-05-11T04:43:35.424Z,3864.00
2019-05-11T04:44:34.411Z,4080.00
2019-05-11T04:45:34.407Z,4248.00
2019-05-11T04:46:34.423Z,4376.00
2019-05-11T04:47:34.380Z,4460.00
2019-05-11T04:48:34.370Z,4500.00
2019-05-11T04:49:34.360Z,4508.00
2019-05-11T04:50:34.353Z,4456.00
2019-05-11T04:51:34.367Z,4372.00
2019-05-11T04:52:34.445Z,4256.00
2019-05-11T04:53:34.314Z,4140.00
2019-05-11T04:54:34.310Z,4068.00
2019-05-11T04:55:34.297Z,4048.00
2019-05-11T04:56:34.312Z,4100.00
2019-05-11T04:57:34.274Z,4212.00
2019-05-11T04:58:34.271Z,4360.00
2019-05-11T04:59:34.257Z,4524.00
2019-05-11T05:00:34.242Z,4672.00
2019-05-11T05:01:34.260Z,4796.00
2019-05-11T05:02:34.221Z,4884.00
2019-05-11T05:03:40.630Z,4952.00
2019-05-11T05:04:35.197Z,5044.00
2019-05-11T05:05:34.187Z,5164.00
2019-05-11T05:06:34.199Z,5316.00
2019-05-11T05:07:34.164Z,5452.00
2019-05-11T05:08:34.158Z,5588.00
2019-05-11T05:09:36.233Z,5692.00
2019-05-11T05:10:35.133Z,5756.00
2019-05-11T05:11:36.619Z,5808.00
2019-05-11T05:12:34.115Z,5868.00
2019-05-11T05:13:34.107Z,5960.00
2019-05-11T05:14:34.104Z,6076.00
2019-05-11T05:15:34.088Z,6236.00
2019-05-11T05:16:34.098Z,6440.00
2019-05-11T05:17:34.061Z,6676.00
2019-05-11T05:18:34.054Z,6944.00
2019-05-11T05:19:34.044Z,7232.00
2019-05-11T05:20:34.036Z,7480.00
2019-05-11T05:21:34.049Z,7684.00
2019-05-11T05:22:34.011Z,7828.00
2019-05-11T05:23:34.002Z,7940.00
2019-05-11T05:24:33.993Z,8040.00
2019-05-11T05:25:33.992Z,8096.00
2019-05-11T05:26:34.006Z,8108.00
2019-05-11T05:27:33.960Z,8116.00
2019-05-11T05:28:33.950Z,8140.00
2019-05-11T05:29:33.938Z,8224.00
2019-05-11T05:30:33.925Z,8372.00
2019-05-11T05:31:33.917Z,8580.00
2019-05-11T05:32:33.934Z,8852.00
2019-05-11T05:33:33.899Z,9140.00
2019-05-11T05:34:33.887Z,9400.00
2019-05-11T05:35:33.872Z,9524.00
2019-05-11T05:36:33.865Z,9520.00
2019-05-11T05:37:33.883Z,9428.00
2019-05-11T05:38:33.846Z,9356.00
2019-05-11T05:39:33.839Z,9268.00
2019-05-11T05:40:33.822Z,9200.00
2019-05-11T05:41:33.811Z,9176.00
2019-05-11T05:42:33.830Z,9176.00
2019-05-11T05:43:33.799Z,9208.00
2019-05-11T05:44:33.782Z,9256.00
2019-05-11T05:45:33.780Z,9252.00
2019-05-11T05:46:33.761Z,9232.00
2019-05-11T05:47:33.785Z,9136.00
2019-05-11T05:48:33.752Z,8996.00
2019-05-11T05:49:33.753Z,8880.00
2019-05-11T05:50:33.719Z,8792.00
2019-05-11T05:51:33.707Z,8640.00
2019-05-11T05:52:33.726Z,8404.00
2019-05-11T05:53:33.690Z,8176.00
2019-05-11T05:54:33.749Z,7992.00
2019-05-11T05:55:33.668Z,7836.00
2019-05-11T05:56:33.663Z,7740.00
2019-05-11T05:57:33.681Z,7644.00
2019-05-11T05:58:33.827Z,7556.00
2019-05-11T05:59:33.626Z,7532.00
2019-05-11T06:00:33.619Z,7624.00
2019-05-11T06:01:33.619Z,7884.00
2019-05-11T06:02:33.623Z,8228.00
2019-05-11T06:03:33.589Z,8496.00
2019-05-11T06:04:33.571Z,8560.00
2019-05-11T06:05:33.568Z,8476.00
2019-05-11T06:06:33.564Z,8364.00
2019-05-11T06:07:33.572Z,8328.00
2019-05-11T06:08:33.532Z,8424.00
2019-05-11T06:09:33.540Z,8560.00
2019-05-11T06:10:33.516Z,8720.00
2019-05-11T06:11:33.511Z,8880.00
2019-05-11T06:12:33.496Z,9048.00
2019-05-11T06:13:44.598Z,9208.00
2019-05-11T06:14:34.467Z,9356.00
2019-05-11T06:15:33.458Z,9500.00
2019-05-11T06:16:33.450Z,9608.00
2019-05-11T06:17:33.438Z,9720.00
2019-05-11T06:18:33.455Z,9808.00
2019-05-11T06:19:33.420Z,9900.00
2019-05-11T06:20:33.411Z,9920.00
2019-05-11T06:21:33.396Z,10052.00
2019-05-11T06:22:33.383Z,10156.00
2019-05-11T06:23:33.406Z,10164.00
2019-05-11T06:24:33.359Z,10380.00
2019-05-11T06:25:33.354Z,10640.00
2019-05-11T06:26:33.343Z,11008.00
2019-05-11T06:27:33.327Z,11492.00
2019-05-11T06:28:33.337Z,11904.00
2019-05-11T06:29:33.313Z,12168.00
2019-05-11T06:30:33.295Z,12324.00
2019-05-11T06:31:33.289Z,12352.00
2019-05-11T06:32:33.278Z,12548.00
2019-05-11T06:33:33.296Z,12680.00
2019-05-11T06:34:33.310Z,12760.00
2019-05-11T06:35:33.244Z,12776.00
2019-05-11T06:36:33.228Z,12696.00
2019-05-11T06:37:33.224Z,12552.00
2019-05-11T06:38:33.248Z,12620.00
2019-05-11T06:39:33.194Z,12884.00
2019-05-11T06:40:33.187Z,13432.00
2019-05-11T06:41:33.176Z,13968.00
2019-05-11T06:42:33.165Z,14476.00
2019-05-11T06:43:33.181Z,14772.00
2019-05-11T06:44:33.143Z,14948.00
2019-05-11T06:45:33.131Z,15052.00
2019-05-11T06:46:35.164Z,15160.00
2019-05-11T06:47:33.113Z,15252.00
2019-05-11T06:48:33.124Z,15300.00
2019-05-11T06:49:33.096Z,15332.00
2019-05-11T06:50:33.084Z,15256.00
2019-05-11T06:51:33.066Z,15276.00
2019-05-11T06:52:33.057Z,15448.00
2019-05-11T06:53:33.072Z,15696.00
2019-05-11T06:54:33.037Z,15956.00
2019-05-11T06:55:33.029Z,16172.00
2019-05-11T06:56:33.020Z,16396.00
2019-05-11T06:57:33.002Z,16656.00
2019-05-11T06:58:33.025Z,16828.00
2019-05-11T06:59:32.988Z,16888.00
2019-05-11T07:00:32.984Z,16900.00
2019-05-11T07:01:32.960Z,16936.00
2019-05-11T07:02:32.952Z,17028.00
2019-05-11T07:03:32.972Z,17312.00
2019-05-11T07:04:32.933Z,17440.00
2019-05-11T07:05:32.919Z,17600.00
2019-05-11T07:06:32.910Z,17696.00
2019-05-11T07:07:46.577Z,17824.00
2019-05-11T07:08:33.918Z,18080.00
2019-05-11T07:09:32.879Z,18368.00
2019-05-11T07:10:32.869Z,18720.00
2019-05-11T07:11:32.858Z,19168.00
2019-05-11T07:12:32.845Z,19680.00
2019-05-11T07:13:32.916Z,20128.00
2019-05-11T07:14:32.829Z,20512.00
2019-05-11T07:15:32.832Z,20704.00
2019-05-11T07:16:32.815Z,20896.00
2019-05-11T07:17:32.841Z,20928.00
2019-05-11T07:18:32.811Z,20800.00
2019-05-11T07:19:32.836Z,20640.00
2019-05-11T07:20:32.762Z,20544.00
2019-05-11T07:21:32.746Z,20640.00
2019-05-11T07:22:32.741Z,20736.00
2019-05-11T07:23:32.764Z,20832.00
2019-05-11T07:24:32.790Z,20800.00
2019-05-11T07:25:32.737Z,20640.00
2019-05-11T07:26:32.695Z,20576.00
2019-05-11T07:27:32.689Z,20672.00
2019-05-11T07:28:32.718Z,20864.00
2019-05-11T07:29:32.667Z,20896.00
2019-05-11T07:30:32.650Z,20864.00
2019-05-11T07:31:32.709Z,21024.00
2019-05-11T07:32:32.645Z,20960.00
2019-05-11T07:33:32.675Z,20832.00
2019-05-11T07:34:32.624Z,20800.00
2019-05-11T07:35:32.605Z,20864.00
2019-05-11T07:36:32.591Z,21152.00
2019-05-11T07:37:32.629Z,21344.00
2019-05-11T07:38:32.567Z,21568.00
2019-05-11T07:39:32.587Z,21696.00
2019-05-11T07:40:32.551Z,22080.00
2019-05-11T07:41:32.537Z,22464.00
2019-05-11T07:42:32.522Z,22848.00
2019-05-11T07:43:32.541Z,23168.00
2019-05-11T07:44:38.244Z,23552.00
2019-05-11T07:45:33.490Z,23904.00
2019-05-11T07:46:32.483Z,24256.00
2019-05-11T07:47:32.477Z,24608.00
2019-05-11T07:48:32.462Z,24896.00
2019-05-11T07:49:32.479Z,25088.00
2019-05-11T07:50:32.440Z,25152.00
2019-05-11T07:51:32.444Z,25216.00
2019-05-11T07:52:32.420Z,25184.00
2019-05-11T07:53:32.407Z,25216.00
2019-05-11T07:54:32.425Z,25344.00
2019-05-11T07:55:32.391Z,25600.00
2019-05-11T07:56:32.388Z,25824.00
2019-05-11T07:57:32.413Z,25952.00
2019-05-11T07:58:32.359Z,26080.00
2019-05-11T07:59:32.428Z,26304.00
2019-05-11T08:00:35.958Z,26624.00
2019-05-11T08:01:32.372Z,27168.00
2019-05-11T08:02:32.527Z,28000.00
2019-05-11T08:03:32.303Z,29024.00
2019-05-11T08:04:32.317Z,30240.00
2019-05-11T08:05:32.287Z,31328.00
2019-05-11T08:06:32.271Z,32192.00
2019-05-11T08:07:32.264Z,32736.00
2019-05-11T08:08:32.247Z,33184.00
2019-05-11T08:09:32.264Z,33344.00
2019-05-11T08:10:32.231Z,33184.00
2019-05-11T08:11:32.218Z,32928.00
2019-05-11T08:12:32.203Z,32544.00
2019-05-11T08:13:32.206Z,32128.00
2019-05-11T08:14:32.214Z,31744.00
2019-05-11T08:15:32.173Z,31424.00
2019-05-11T08:16:32.165Z,31232.00
2019-05-11T08:17:32.150Z,31136.00
2019-05-11T08:18:32.142Z,30752.00
2019-05-11T08:19:32.154Z,30400.00
2019-05-11T08:20:32.122Z,30304.00
2019-05-11T08:21:32.114Z,30528.00
2019-05-11T08:22:32.104Z,31008.00
2019-05-11T08:23:32.088Z,31424.00
2019-05-11T08:24:32.110Z,31456.00
2019-05-11T08:25:32.066Z,31520.00
2019-05-11T08:26:32.061Z,31584.00
2019-05-11T08:27:32.047Z,31648.00
2019-05-11T08:28:32.038Z,31808.00
2019-05-11T08:29:32.053Z,32096.00
2019-05-11T08:30:32.017Z,32672.00
2019-05-11T08:31:32.006Z,33216.00
2019-05-11T08:32:31.990Z,33632.00
2019-05-11T08:33:31.982Z,34016.00
2019-05-11T08:34:31.997Z,34336.00
2019-05-11T08:35:31.963Z,34752.00
2019-05-11T08:36:31.946Z,35072.00
2019-05-11T08:37:31.942Z,35200.00
2019-05-11T08:38:31.928Z,35360.00
2019-05-11T08:39:31.946Z,35904.00
2019-05-11T08:40:31.910Z,36576.00
2019-05-11T08:41:31.894Z,36640.00
2019-05-11T08:42:31.883Z,37120.00
2019-05-11T08:43:31.874Z,36544.00
2019-05-11T08:44:31.891Z,35008.00
2019-05-11T08:45:31.857Z,34688.00
2019-05-11T08:46:31.842Z,34976.00
2019-05-11T08:47:31.831Z,35264.00
2019-05-11T08:48:31.824Z,34176.00
2019-05-11T08:49:31.842Z,32896.00
2019-05-11T08:50:31.802Z,31552.00
2019-05-11T08:51:31.796Z,31328.00
2019-05-11T08:52:31.779Z,28896.00
2019-05-11T08:53:31.770Z,25792.00
2019-05-11T08:54:31.785Z,26528.00
2019-05-11T08:55:31.747Z,29568.00
2019-05-11T08:56:31.745Z,32160.00
2019-05-11T08:57:31.736Z,33312.00
2019-05-11T08:58:31.720Z,32992.00
2019-05-11T08:59:31.707Z,31744.00
2019-05-11T09:00:31.722Z,31264.00
2019-05-11T09:01:31.691Z,32064.00
2019-05-11T09:02:31.679Z,32896.00
2019-05-11T09:03:31.668Z,33280.00
2019-05-11T09:04:31.654Z,32448.00
2019-05-11T09:05:31.678Z,32384.00
2019-05-11T09:06:31.635Z,30720.00
2019-05-11T09:07:31.622Z,28384.00
2019-05-11T09:08:31.616Z,28864.00
2019-05-11T09:09:31.603Z,27520.00
2019-05-11T09:10:31.631Z,23904.00
2019-05-11T09:11:31.589Z,25216.00
2019-05-11T09:12:31.570Z,25344.00
2019-05-11T09:13:31.559Z,27584.00
2019-05-11T09:14:31.550Z,26592.00
2019-05-11T09:15:36.935Z,25600.00
2019-05-11T09:16:32.527Z,27296.00
2019-05-11T09:17:31.518Z,28864.00
2019-05-11T09:18:31.520Z,25728.00
2019-05-11T09:19:31.499Z,23936.00
2019-05-11T09:20:31.510Z,25056.00
2019-05-11T09:21:31.474Z,25792.00
2019-05-11T09:22:31.463Z,25376.00
2019-05-11T09:23:37.350Z,27392.00
2019-05-11T09:24:32.449Z,30976.00
2019-05-11T09:25:31.453Z,34080.00
2019-05-11T09:26:31.423Z,33856.00
2019-05-11T09:27:31.411Z,32288.00
2019-05-11T09:28:31.398Z,31008.00
2019-05-11T09:29:31.393Z,29760.00
2019-05-11T09:30:31.412Z,28256.00
2019-05-11T09:31:31.368Z,27360.00
2019-05-11T09:32:31.356Z,27168.00
2019-05-11T09:33:31.346Z,25408.00
2019-05-11T09:34:31.336Z,23392.00
2019-05-11T09:35:31.350Z,22272.00
2019-05-11T09:36:31.343Z,22304.00
2019-05-11T09:37:31.309Z,21984.00
2019-05-11T09:38:31.293Z,20864.00
2019-05-11T09:39:31.283Z,20704.00
2019-05-11T09:40:31.305Z,21664.00
2019-05-11T09:41:31.267Z,24320.00
2019-05-11T09:42:31.251Z,27808.00
2019-05-11T09:43:31.243Z,30944.00
2019-05-11T09:44:31.232Z,34816.00
2019-05-11T09:45:44.705Z,38720.00
2019-05-11T09:46:32.210Z,33440.00
2019-05-11T09:47:31.205Z,30112.00
2019-05-11T09:48:31.187Z,29920.00
2019-05-11T09:49:43.839Z,29248.00
2019-05-11T09:50:32.190Z,27616.00
2019-05-11T09:51:31.155Z,26560.00
2019-05-11T09:52:32.477Z,26144.00
2019-05-11T09:53:31.154Z,26240.00
2019-05-11T09:54:31.127Z,27936.00
2019-05-11T09:55:31.145Z,31968.00
2019-05-11T09:56:31.105Z,29344.00
2019-05-11T09:57:31.096Z,24160.00
2019-05-11T09:58:31.086Z,22176.00
2019-05-11T09:59:31.084Z,22272.00
2019-05-11T10:00:31.097Z,24480.00
2019-05-11T10:01:31.066Z,26464.00
2019-05-11T10:02:31.050Z,26336.00
2019-05-11T10:03:31.027Z,26752.00
2019-05-11T10:04:31.032Z,29408.00
2019-05-11T10:05:31.033Z,30624.00
2019-05-11T10:06:30.997Z,27392.00
2019-05-11T10:07:32.599Z,27296.00
2019-05-11T10:08:30.974Z,29248.00
2019-05-11T10:09:30.966Z,28704.00
2019-05-11T10:10:30.991Z,28704.00
2019-05-11T10:11:30.951Z,24416.00
2019-05-11T10:12:30.930Z,21952.00
2019-05-11T10:13:30.927Z,23744.00
2019-05-11T10:14:30.918Z,29024.00
2019-05-11T10:15:30.926Z,34528.00
2019-05-11T10:16:30.887Z,33504.00
2019-05-11T10:17:30.881Z,31616.00
2019-05-11T10:18:30.871Z,31232.00
2019-05-11T10:19:30.858Z,31872.00
2019-05-11T10:20:30.878Z,34016.00
2019-05-11T10:21:30.840Z,33856.00
2019-05-11T10:22:30.827Z,33120.00
2019-05-11T10:23:30.817Z,32832.00
2019-05-11T10:24:30.802Z,31680.00
2019-05-11T10:25:30.846Z,25024.00
2019-05-11T10:26:30.783Z,17888.00
2019-05-11T10:27:30.776Z,15280.00
2019-05-11T10:28:30.762Z,16416.00
2019-05-11T10:29:33.800Z,19040.00
2019-05-11T10:30:30.769Z,20928.00
2019-05-11T10:31:30.726Z,20576.00
2019-05-11T10:32:30.720Z,18976.00
2019-05-11T10:33:30.734Z,18464.00
2019-05-11T10:34:30.697Z,18592.00
2019-05-11T10:35:30.685Z,17280.00
2019-05-11T10:36:30.676Z,16248.00
2019-05-11T10:37:30.665Z,16196.00
2019-05-11T10:38:30.677Z,15048.00
2019-05-11T10:39:30.647Z,14632.00
2019-05-11T10:40:30.635Z,16360.00
2019-05-11T10:41:30.623Z,18016.00
2019-05-11T10:42:30.615Z,19104.00
2019-05-11T10:43:30.626Z,20480.00
2019-05-11T10:44:30.587Z,21280.00
2019-05-11T10:45:30.574Z,18912.00
2019-05-11T10:46:30.567Z,16824.00
2019-05-11T10:47:30.565Z,15256.00
2019-05-11T10:48:30.592Z,16616.00
2019-05-11T10:49:30.535Z,18816.00
2019-05-11T10:50:30.522Z,19776.00
2019-05-11T10:51:30.514Z,20128.00
2019-05-11T10:52:30.503Z,18720.00
2019-05-11T10:53:30.494Z,17696.00
2019-05-11T10:54:30.512Z,19808.00
2019-05-11T10:55:30.472Z,22592.00
2019-05-11T10:56:30.463Z,22464.00
2019-05-11T10:57:30.450Z,20256.00
2019-05-11T10:58:30.439Z,21568.00
2019-05-11T10:59:30.462Z,24320.00
2019-05-11T11:00:30.433Z,27072.00
2019-05-11T11:01:30.412Z,31072.00
2019-05-11T11:02:30.400Z,29920.00
2019-05-11T11:03:30.459Z,28896.00
2019-05-11T11:04:30.564Z,28064.00
2019-05-11T11:05:30.362Z,29632.00
2019-05-11T11:06:30.394Z,29888.00
2019-05-11T11:07:30.442Z,26048.00
2019-05-11T11:08:30.446Z,22112.00
2019-05-11T11:09:30.351Z,19872.00
2019-05-11T11:10:30.315Z,18464.00
2019-05-11T11:11:30.301Z,16888.00
2019-05-11T11:12:30.292Z,15940.00
2019-05-11T11:13:30.286Z,16172.00
2019-05-11T11:14:30.294Z,17824.00
2019-05-11T11:15:30.267Z,19968.00
2019-05-11T11:16:36.855Z,21536.00
2019-05-11T11:17:31.253Z,17920.00
2019-05-11T11:18:30.230Z,17920.00
2019-05-11T11:19:30.217Z,19968.00
2019-05-11T11:20:30.207Z,24288.00
2019-05-11T11:21:30.343Z,27392.00
2019-05-11T11:22:39.972Z,30464.00
2019-05-11T11:23:31.180Z,31136.00
2019-05-11T11:24:30.164Z,30272.00
2019-05-11T11:25:30.154Z,32384.00
2019-05-11T11:26:30.170Z,34208.00
2019-05-11T11:27:30.136Z,34464.00
2019-05-11T11:28:30.163Z,29504.00
2019-05-11T11:29:30.116Z,27424.00
2019-05-11T11:30:30.156Z,27136.00
2019-05-11T11:31:30.094Z,27872.00
2019-05-11T11:32:30.110Z,31008.00
2019-05-11T11:33:30.078Z,31040.00
2019-05-11T11:34:30.066Z,30272.00
2019-05-11T11:35:30.072Z,33664.00
2019-05-11T11:36:30.040Z,35936.00
2019-05-11T11:37:30.033Z,34944.00
2019-05-11T11:38:30.019Z,34336.00
2019-05-11T11:39:30.009Z,35456.00
2019-05-11T11:40:30.019Z,43936.00
2019-05-11T11:41:30.145Z,49504.00
2019-05-11T11:42:29.981Z,49216.00
2019-05-11T11:43:29.958Z,45568.00
2019-05-11T11:44:29.959Z,45824.00
2019-05-11T11:45:29.967Z,49376.00
2019-05-11T11:46:29.927Z,51872.00
2019-05-11T11:47:29.915Z,58048.00
2019-05-11T11:48:29.908Z,60704.00
2019-05-11T11:49:29.898Z,62400.00
2019-05-11T11:50:29.912Z,72000.00
2019-05-11T11:51:29.875Z,70432.00
2019-05-11T11:52:29.868Z,81760.00
2019-05-11T11:53:29.854Z,66368.00
2019-05-11T11:54:29.842Z,102368.00
2019-05-11T11:55:29.874Z,74368.00
2019-05-11T11:56:29.829Z,70976.00
2019-05-11T11:57:29.810Z,83680.00
2019-05-11T11:58:29.803Z,69248.00
2019-05-11T11:59:29.792Z,65792.00
2019-05-11T12:00:29.779Z,64992.00
2019-05-11T12:01:29.815Z,70880.00
2019-05-11T12:02:29.767Z,79136.00
2019-05-11T12:03:29.750Z,83104.00
2019-05-11T12:04:29.735Z,73792.00
2019-05-11T12:05:29.726Z,106176.00
2019-05-11T12:06:29.739Z,84448.00
2019-05-11T12:07:29.717Z,113024.00
2019-05-11T12:08:29.697Z,110560.00
2019-05-11T12:09:29.689Z,123040.00
2019-05-11T12:10:29.674Z,99456.00
2019-05-11T12:11:29.689Z,77664.00
2019-05-11T12:12:29.655Z,63968.00
2019-05-11T12:15:08.656Z,51648.00
2019-05-11T12:15:38.859Z,48704.00
2019-05-11T12:16:38.939Z,47232.00